createdAt,value
2022-09-05T00:01:27.639Z,99477.84
2022-09-05T00:04:03.476Z,99477.84
2022-09-05T00:06:52.390Z,99477.09
2022-09-05T00:09:41.809Z,99471.00
2022-09-05T00:12:11.889Z,99470.44
2022-09-05T00:15:16.936Z,99474.59
2022-09-05T00:18:56.491Z,99470.63
2022-09-05T00:24:28.565Z,99476.69
2022-09-05T00:24:42.059Z,99475.88
2022-09-05T00:26:29.528Z,99478.19
2022-09-05T00:29:04.396Z,99473.09
2022-09-05T00:31:54.006Z,99471.38
2022-09-05T00:34:47.919Z,99465.06
2022-09-05T00:37:27.981Z,99453.97
2022-09-05T00:40:17.442Z,99458.97
2022-09-05T00:42:48.974Z,99459.03
2022-09-05T00:45:20.729Z,99460.34
2022-09-05T00:47:49.853Z,99457.63
2022-09-05T00:50:23.190Z,99463.28
2022-09-05T00:53:06.551Z,99473.63
2022-09-05T00:55:40.824Z,99462.63
2022-09-05T00:58:20.381Z,99467.75
2022-09-05T01:00:53.098Z,99473.94
2022-09-05T01:03:45.640Z,99457.50
2022-09-05T01:06:19.159Z,99463.03
2022-09-05T01:09:09.432Z,99458.34
2022-09-05T01:11:54.109Z,99455.34
2022-09-05T01:14:35.236Z,99450.00
2022-09-05T01:17:12.409Z,99450.09
2022-09-05T01:19:52.059Z,99446.09
2022-09-05T01:22:40.703Z,99446.72
2022-09-05T01:25:16.595Z,99448.88
2022-09-05T01:29:06.493Z,99443.03
2022-09-05T01:30:42.280Z,99449.56
2022-09-05T01:33:18.980Z,99448.88
2022-09-05T01:36:03.446Z,99449.19
2022-09-05T01:38:37.481Z,99444.66
2022-09-05T01:41:19.232Z,99447.72
2022-09-05T01:44:11.379Z,99439.00
2022-09-05T01:46:43.764Z,99450.72
2022-09-05T01:49:25.002Z,99444.75
2022-09-05T01:52:10.875Z,99442.63
2022-09-05T01:54:45.987Z,99440.19
2022-09-05T01:57:21.547Z,99434.72
2022-09-05T01:59:56.160Z,99440.56
2022-09-05T02:02:33.326Z,99448.94
2022-09-05T02:05:13.423Z,99446.44
2022-09-05T02:07:56.147Z,99437.94
2022-09-05T02:10:44.395Z,99443.66
2022-09-05T02:13:18.774Z,99445.19
2022-09-05T02:15:59.133Z,99441.75
2022-09-05T02:18:30.808Z,99439.88
2022-09-05T02:21:01.044Z,99445.78
2022-09-05T02:23:41.599Z,99442.84
2022-09-05T02:26:14.073Z,99441.50
2022-09-05T02:28:45.276Z,99438.28
2022-09-05T02:31:19.793Z,99448.06
2022-09-05T02:34:01.805Z,99442.09
2022-09-05T02:36:35.649Z,99448.53
2022-09-05T02:43:09.316Z,99446.66
2022-09-05T02:45:19.431Z,99444.56
2022-09-05T02:45:20.931Z,99443.88
2022-09-05T02:47:47.324Z,99446.66
2022-09-05T02:53:06.548Z,99442.84
2022-09-05T02:57:33.266Z,99446.56
2022-09-05T02:57:37.227Z,99439.03
2022-09-05T02:59:13.897Z,99440.28
2022-09-05T03:01:55.597Z,99440.28
2022-09-05T03:04:31.022Z,99440.09
2022-09-05T03:07:26.551Z,99440.56
2022-09-05T03:10:17.768Z,99435.53
2022-09-05T03:13:15.922Z,99434.59
2022-09-05T03:16:11.469Z,99436.09
2022-09-05T03:19:12.588Z,99434.00
2022-09-05T03:22:09.286Z,99434.69
2022-09-05T03:25:00.249Z,99430.59
2022-09-05T03:28:04.809Z,99434.38
2022-09-05T03:30:41.190Z,99437.16
2022-09-05T03:33:33.976Z,99438.38
2022-09-05T03:36:28.390Z,99436.56
2022-09-05T03:39:31.695Z,99428.69
2022-09-05T03:42:31.591Z,99431.81
2022-09-05T03:45:15.406Z,99430.13
2022-09-05T03:48:24.716Z,99434.00
2022-09-05T03:57:17.061Z,99436.09
2022-09-05T03:57:20.828Z,99437.25
2022-09-05T03:57:38.716Z,99437.63
2022-09-05T04:00:11.401Z,99435.53
2022-09-05T04:08:06.416Z,99434.38
2022-09-05T04:08:16.189Z,99443.97
2022-09-05T04:08:42.729Z,99435.78
2022-09-05T04:11:16.099Z,99438.47
2022-09-05T04:13:50.613Z,99436.66
2022-09-05T04:16:20.221Z,99438.56
2022-09-05T04:18:51.614Z,99443.03
2022-09-05T04:21:22.866Z,99443.78
2022-09-05T04:24:08.952Z,99451.69
2022-09-05T04:26:47.394Z,99443.88
2022-09-05T04:29:20.978Z,99449.22
2022-09-05T04:32:17.918Z,99451.59
2022-09-05T04:34:51.270Z,99448.81
2022-09-05T04:37:47.832Z,99462.88
2022-09-05T04:40:33.208Z,99455.97
2022-09-05T04:43:03.652Z,99460.22
2022-09-05T04:45:40.875Z,99464.41
2022-09-05T04:48:12.132Z,99458.50
2022-09-05T04:50:46.591Z,99462.50
2022-09-05T04:53:20.654Z,99466.53
2022-09-05T04:55:51.160Z,99459.84
2022-09-05T04:58:27.507Z,99474.69
2022-09-05T05:06:03.004Z,99473.72
2022-09-05T05:06:12.052Z,99477.66
2022-09-05T05:07:07.688Z,99476.53
2022-09-05T05:09:40.720Z,99486.97
2022-09-05T05:17:54.817Z,99480.13
2022-09-05T05:18:08.288Z,99487.22
2022-09-05T05:18:42.414Z,99488.69
2022-09-05T05:20:50.125Z,99480.81
2022-09-05T05:23:19.556Z,99478.25
2022-09-05T05:25:51.798Z,99476.84
2022-09-05T05:28:26.903Z,99476.34
2022-09-05T05:31:01.520Z,99487.19
2022-09-05T05:33:33.732Z,99477.34
2022-09-05T05:36:03.044Z,99487.78
2022-09-05T05:38:37.792Z,99488.09
2022-09-05T05:41:10.983Z,99490.91
2022-09-05T05:43:45.501Z,99491.88
2022-09-05T05:46:16.468Z,99493.47
2022-09-05T05:48:51.765Z,99501.00
2022-09-05T05:51:53.353Z,99502.22
2022-09-05T05:54:28.124Z,99500.31
2022-09-05T05:57:23.809Z,99500.22
2022-09-05T05:59:59.105Z,99511.13
2022-09-05T06:03:25.657Z,99509.31
2022-09-05T06:06:16.333Z,99511.38
2022-09-05T06:11:20.432Z,99512.38
2022-09-05T06:14:57.751Z,99512.53
2022-09-05T06:16:01.476Z,99516.09
2022-09-05T06:19:25.442Z,99517.44
2022-09-05T06:22:44.506Z,99519.94
2022-09-05T06:25:46.013Z,99513.53
2022-09-05T06:28:21.217Z,99519.41
2022-09-05T06:31:22.535Z,99518.50
2022-09-05T06:33:52.419Z,99522.44
2022-09-05T06:36:32.615Z,99521.28
2022-09-05T06:39:07.466Z,99530.88
2022-09-05T06:41:42.563Z,99527.06
2022-09-05T06:44:38.234Z,99523.00
2022-09-05T06:47:24.389Z,99524.28
2022-09-05T06:50:24.186Z,99528.53
2022-09-05T06:53:25.239Z,99524.06
2022-09-05T06:56:00.349Z,99521.06
2022-09-05T06:59:08.994Z,99524.91
2022-09-05T07:02:00.622Z,99526.63
2022-09-05T07:05:18.449Z,99527.03
2022-09-05T07:07:24.782Z,99525.84
2022-09-05T07:09:59.407Z,99532.84
2022-09-05T07:12:30.473Z,99543.13
2022-09-05T07:15:08.600Z,99544.41
2022-09-05T07:18:09.674Z,99545.59
2022-09-05T07:21:17.135Z,99537.56
2022-09-05T07:24:10.272Z,99534.50
2022-09-05T07:26:52.113Z,99541.09
2022-09-05T07:29:27.634Z,99540.34
2022-09-05T07:31:57.426Z,99539.75
2022-09-05T07:34:28.988Z,99539.75
2022-09-05T07:37:14.773Z,99540.00
2022-09-05T07:39:46.465Z,99537.44
2022-09-05T07:42:18.192Z,99541.47
2022-09-05T07:44:50.224Z,99538.41
2022-09-05T07:47:22.256Z,99545.56
2022-09-05T07:50:20.997Z,99546.31
2022-09-05T07:57:00.668Z,99541.72
2022-09-05T07:57:08.677Z,99542.09
2022-09-05T07:58:21.400Z,99539.31
2022-09-05T08:00:53.032Z,99546.53
2022-09-05T08:03:26.618Z,99542.19
2022-09-05T08:05:55.449Z,99546.97
2022-09-05T08:08:25.875Z,99541.72
2022-09-05T08:11:24.878Z,99546.00
2022-09-05T08:13:52.563Z,99545.91
2022-09-05T08:16:23.302Z,99538.72
2022-09-05T08:18:57.034Z,99533.97
2022-09-05T08:21:28.055Z,99550.03
2022-09-05T08:24:05.528Z,99551.59
2022-09-05T08:26:47.088Z,99547.13
2022-09-05T08:29:22.959Z,99541.03
2022-09-05T08:31:52.770Z,99538.59
2022-09-05T08:34:32.779Z,99538.69
2022-09-05T08:37:13.916Z,99531.97
2022-09-05T08:39:49.853Z,99530.47
2022-09-05T08:42:52.741Z,99531.16
2022-09-05T08:46:47.737Z,99535.38
2022-09-05T08:48:35.812Z,99534.19
2022-09-05T08:51:14.960Z,99535.75
2022-09-05T08:53:54.545Z,99539.44
2022-09-05T08:56:23.355Z,99536.75
2022-09-05T08:59:27.635Z,99536.09
2022-09-05T09:02:00.760Z,99538.19
2022-09-05T09:05:02.566Z,99537.78
2022-09-05T09:07:47.285Z,99534.69
2022-09-05T09:10:28.443Z,99535.66
2022-09-05T09:13:08.497Z,99537.13
2022-09-05T09:15:38.722Z,99526.47
2022-09-05T09:18:14.810Z,99531.34
2022-09-05T09:20:51.898Z,99523.97
2022-09-05T09:23:38.910Z,99525.94
2022-09-05T09:26:15.752Z,99521.00
2022-09-05T09:28:56.882Z,99517.63
2022-09-05T09:31:48.094Z,99516.22
2022-09-05T09:34:38.189Z,99514.09
2022-09-05T09:37:51.823Z,99512.13
2022-09-05T09:41:02.661Z,99509.59
2022-09-05T09:43:53.078Z,99507.84
2022-09-05T09:46:28.310Z,99505.25
2022-09-05T09:49:22.905Z,99511.34
2022-09-05T09:52:36.470Z,99503.38
2022-09-05T09:55:42.478Z,99494.97
2022-09-05T09:58:29.260Z,99499.44
2022-09-05T10:01:35.000Z,99495.41
2022-09-05T10:10:32.867Z,99486.78
2022-09-05T10:10:45.889Z,99481.94
2022-09-05T10:10:46.047Z,99485.44
2022-09-05T10:13:28.780Z,99488.28
2022-09-05T10:16:16.480Z,99478.53
2022-09-05T10:18:54.466Z,99481.00
2022-09-05T10:21:32.345Z,99475.13
2022-09-05T10:24:35.282Z,99476.03
2022-09-05T10:27:44.524Z,99468.84
2022-09-05T10:30:25.303Z,99464.91
2022-09-05T10:35:08.367Z,99461.34
2022-09-05T10:36:23.494Z,99468.13
2022-09-05T10:39:00.925Z,99462.31
2022-09-05T10:41:50.946Z,99455.44
2022-09-05T10:44:25.080Z,99457.75
2022-09-05T10:46:59.885Z,99451.56
2022-09-05T10:49:30.161Z,99447.06
2022-09-05T10:52:13.152Z,99451.78
2022-09-05T10:55:14.318Z,99444.16
2022-09-05T10:57:55.909Z,99437.19
2022-09-05T11:02:20.428Z,99434.38
2022-09-05T11:03:45.915Z,99434.53
2022-09-05T11:06:16.677Z,99425.44
2022-09-05T11:08:58.722Z,99426.59
2022-09-05T11:11:34.666Z,99413.41
2022-09-05T11:14:07.241Z,99419.97
2022-09-05T11:16:51.083Z,99417.63
2022-09-05T11:19:22.170Z,99408.50
2022-09-05T11:22:04.066Z,99412.22
2022-09-05T11:24:50.175Z,99415.97
2022-09-05T11:27:29.167Z,99411.47
2022-09-05T11:30:00.824Z,99409.41
2022-09-05T11:36:32.346Z,99404.19
2022-09-05T11:40:00.458Z,99405.41
2022-09-05T11:40:07.457Z,99391.22
2022-09-05T11:42:17.740Z,99402.41
2022-09-05T11:45:12.078Z,99393.28
2022-09-05T11:48:10.512Z,99396.81
2022-09-05T11:51:00.844Z,99394.28
2022-09-05T11:53:42.193Z,99393.28
2022-09-05T11:56:29.993Z,99386.66
2022-09-05T11:59:33.660Z,99393.25
2022-09-05T12:02:23.927Z,99393.09
2022-09-05T12:05:49.079Z,99384.47
2022-09-05T12:07:57.397Z,99389.88
2022-09-05T12:10:43.380Z,99388.69
2022-09-05T12:13:26.383Z,99380.53
2022-09-05T12:16:07.741Z,99379.81
2022-09-05T12:18:45.928Z,99373.09
2022-09-05T12:21:25.765Z,99376.84
2022-09-05T12:25:16.566Z,99369.53
2022-09-05T12:27:43.795Z,99370.06
2022-09-05T12:29:50.023Z,99364.28
2022-09-05T12:33:47.906Z,99362.59
2022-09-05T12:36:10.010Z,99362.50
2022-09-05T12:40:55.969Z,99358.72
2022-09-05T12:41:40.752Z,99349.50
2022-09-05T12:44:41.358Z,99353.88
2022-09-05T12:47:19.819Z,99348.72
2022-09-05T12:50:02.786Z,99345.59
2022-09-05T12:52:44.113Z,99341.63
2022-09-05T12:55:25.920Z,99333.16
2022-09-05T13:03:03.073Z,99329.91
2022-09-05T13:03:13.669Z,99328.50
2022-09-05T13:03:53.336Z,99335.63
2022-09-05T13:06:27.322Z,99339.34
2022-09-05T13:09:02.800Z,99334.56
2022-09-05T13:14:50.340Z,99335.06
2022-09-05T13:15:06.146Z,99335.06
2022-09-05T13:17:14.386Z,99323.50
2022-09-05T13:19:51.392Z,99331.41
2022-09-05T13:22:24.559Z,99329.53
2022-09-05T13:25:00.872Z,99326.59
2022-09-05T13:27:31.869Z,99322.69
2022-09-05T13:31:40.677Z,99318.50
2022-09-05T13:37:56.504Z,99308.53
2022-09-05T13:38:11.510Z,99313.19
2022-09-05T13:38:51.804Z,99313.47
2022-09-05T13:41:28.385Z,99309.19
2022-09-05T13:44:00.554Z,99308.53
2022-09-05T13:46:58.220Z,99317.84
2022-09-05T13:49:31.635Z,99307.94
2022-09-05T13:52:09.747Z,99305.88
2022-09-05T13:54:42.189Z,99293.16
2022-09-05T13:57:32.441Z,99293.22
2022-09-05T14:00:27.722Z,99296.69
2022-09-05T14:03:38.380Z,99300.88
2022-09-05T14:06:47.474Z,99294.97
2022-09-05T14:09:39.799Z,99292.78
2022-09-05T14:12:12.620Z,99288.94
2022-09-05T14:17:54.172Z,99273.09
2022-09-05T14:20:44.050Z,99283.34
2022-09-05T14:23:17.706Z,99286.59
2022-09-05T14:25:49.982Z,99278.44
2022-09-05T14:28:27.352Z,99277.28
2022-09-05T14:37:40.804Z,99262.75
2022-09-05T14:37:45.288Z,99272.78
2022-09-05T14:37:50.191Z,99271.19
2022-09-05T14:40:29.983Z,99258.94
2022-09-05T14:43:27.022Z,99258.09
2022-09-05T14:46:10.235Z,99261.28
2022-09-05T14:48:56.345Z,99257.16
2022-09-05T14:51:30.742Z,99251.66
2022-09-05T14:54:02.547Z,99247.97
2022-09-05T14:59:44.893Z,99243.94
2022-09-05T15:02:48.939Z,99250.22
2022-09-05T15:02:57.367Z,99237.38
2022-09-05T15:05:16.449Z,99241.59
2022-09-05T15:07:45.534Z,99230.03
2022-09-05T15:12:21.290Z,99227.78
2022-09-05T15:13:25.682Z,99233.66
2022-09-05T15:16:02.789Z,99228.72
2022-09-05T15:18:33.580Z,99222.28
2022-09-05T15:21:30.754Z,99226.75
2022-09-05T15:24:12.902Z,99218.06
2022-09-05T15:26:53.043Z,99209.22
2022-09-05T15:29:23.629Z,99211.94
2022-09-05T15:31:54.579Z,99210.06
2022-09-05T15:34:38.480Z,99210.03
2022-09-05T15:37:22.837Z,99210.88
2022-09-05T15:40:01.255Z,99202.50
2022-09-05T15:42:32.550Z,99202.44
2022-09-05T15:45:10.454Z,99204.97
2022-09-05T15:47:41.773Z,99201.72
2022-09-05T15:50:21.799Z,99192.44
2022-09-05T15:52:55.701Z,99203.47
2022-09-05T15:55:26.576Z,99196.84
2022-09-05T15:57:57.727Z,99189.66
2022-09-05T16:00:43.649Z,99183.16
2022-09-05T16:05:02.322Z,99189.16
2022-09-05T16:10:36.097Z,99188.50
2022-09-05T16:10:38.653Z,99196.19
2022-09-05T16:12:14.308Z,99188.19
2022-09-05T16:15:01.760Z,99189.13
2022-09-05T16:23:12.305Z,99187.16
2022-09-05T16:23:23.752Z,99180.63
2022-09-05T16:23:40.598Z,99190.50
2022-09-05T16:26:12.122Z,99182.25
2022-09-05T16:28:47.155Z,99181.09
2022-09-05T16:31:21.281Z,99176.34
2022-09-05T16:33:49.501Z,99178.03
2022-09-05T16:36:19.027Z,99174.47
2022-09-05T16:38:50.749Z,99175.50
2022-09-05T16:41:24.561Z,99173.63
2022-09-05T16:43:55.868Z,99166.31
2022-09-05T16:46:28.187Z,99166.13
2022-09-05T16:49:00.682Z,99153.28
2022-09-05T16:51:36.480Z,99155.09
2022-09-05T16:54:10.954Z,99149.84
2022-09-05T16:56:41.902Z,99154.75
2022-09-05T16:59:12.012Z,99153.94
2022-09-05T17:02:09.213Z,99148.00
2022-09-05T17:05:05.001Z,99150.75
2022-09-05T17:07:55.521Z,99150.09
2022-09-05T17:10:26.656Z,99150.84
2022-09-05T17:12:54.882Z,99149.00
2022-09-05T17:15:27.606Z,99147.69
2022-09-05T17:18:22.266Z,99145.84
2022-09-05T17:20:51.505Z,99149.63
2022-09-05T17:26:36.979Z,99146.06
2022-09-05T17:29:23.729Z,99141.19
2022-09-05T17:30:21.943Z,99140.19
2022-09-05T17:31:57.559Z,99132.59
2022-09-05T17:34:48.124Z,99138.69
2022-09-05T17:37:26.379Z,99135.50
2022-09-05T17:40:00.571Z,99139.50
2022-09-05T17:42:37.718Z,99131.56
2022-09-05T17:45:16.425Z,99132.41
2022-09-05T17:47:48.285Z,99127.84
2022-09-05T17:50:23.016Z,99120.06
2022-09-05T17:53:26.002Z,99136.75
2022-09-05T17:56:14.297Z,99131.47
2022-09-05T17:59:03.865Z,99134.31
2022-09-05T18:01:32.404Z,99134.06
2022-09-05T18:04:16.070Z,99133.72
2022-09-05T18:06:59.018Z,99144.47
2022-09-05T18:10:07.616Z,99140.84
2022-09-05T18:13:13.713Z,99146.13
2022-09-05T18:16:02.949Z,99147.19
2022-09-05T18:19:32.888Z,99149.91
2022-09-05T18:21:25.156Z,99152.72
2022-09-05T18:24:00.667Z,99160.19
2022-09-05T18:26:29.358Z,99157.88
2022-09-05T18:29:03.872Z,99162.72
2022-09-05T18:32:02.693Z,99164.81
2022-09-05T18:34:45.228Z,99162.88
2022-09-05T18:38:00.042Z,99172.59
2022-09-05T18:40:48.615Z,99170.88
2022-09-05T18:43:33.552Z,99171.16
2022-09-05T18:46:08.320Z,99172.03
2022-09-05T18:48:44.742Z,99175.88
2022-09-05T18:51:35.450Z,99180.03
2022-09-05T18:54:05.478Z,99175.69
2022-09-05T18:57:12.053Z,99179.06
2022-09-05T18:59:30.551Z,99165.38
2022-09-05T19:02:04.487Z,99159.19
2022-09-05T19:04:40.817Z,99164.06
2022-09-05T19:07:11.836Z,99160.72
2022-09-05T19:09:56.915Z,99161.94
2022-09-05T19:12:33.908Z,99153.00
2022-09-05T19:15:08.415Z,99154.19
2022-09-05T19:17:38.319Z,99149.97
2022-09-05T19:20:32.613Z,99145.38
2022-09-05T19:23:09.829Z,99151.38
2022-09-05T19:25:41.729Z,99145.84
2022-09-05T19:33:50.489Z,99143.69
2022-09-05T19:36:58.521Z,99144.84
2022-09-05T19:37:10.873Z,99144.13
2022-09-05T19:37:22.506Z,99149.38
2022-09-05T19:42:04.574Z,99150.97
2022-09-05T19:47:35.917Z,99142.75
2022-09-05T19:47:36.392Z,99134.16
2022-09-05T19:48:17.928Z,99135.72
2022-09-05T19:50:47.160Z,99132.56
2022-09-05T19:53:16.260Z,99134.97
2022-09-05T19:55:44.690Z,99141.59
2022-09-05T19:58:19.843Z,99134.81
2022-09-05T20:01:02.361Z,99126.38
2022-09-05T20:03:38.261Z,99127.97
2022-09-05T20:06:29.383Z,99121.44
2022-09-05T20:09:09.587Z,99119.75
2022-09-05T20:11:45.702Z,99122.59
2022-09-05T20:14:19.497Z,99114.22
2022-09-05T20:16:50.105Z,99127.66
2022-09-05T20:19:30.598Z,99123.28
2022-09-05T20:22:14.339Z,99128.38
2022-09-05T20:24:49.091Z,99115.94
2022-09-05T20:27:17.145Z,99118.50
2022-09-05T20:29:54.789Z,99120.59
2022-09-05T20:32:39.567Z,99107.75
2022-09-05T20:39:26.608Z,99131.66
2022-09-05T20:43:23.017Z,99135.22
2022-09-05T20:43:24.765Z,99138.34
2022-09-05T20:43:52.629Z,99143.13
2022-09-05T20:49:00.848Z,99134.66
2022-09-05T20:54:05.982Z,99136.78
2022-09-05T20:54:19.245Z,99131.00
2022-09-05T20:55:39.434Z,99135.66
2022-09-05T20:58:09.348Z,99135.50
2022-09-05T21:00:38.949Z,99135.22
2022-09-05T21:03:09.102Z,99126.44
2022-09-05T21:05:39.920Z,99124.19
2022-09-05T21:08:24.938Z,99133.38
2022-09-05T21:10:55.706Z,99129.38
2022-09-05T21:13:25.871Z,99131.09
2022-09-05T21:15:54.751Z,99133.66
2022-09-05T21:18:29.999Z,99133.94
2022-09-05T21:21:28.119Z,99135.19
2022-09-05T21:24:16.858Z,99125.16
2022-09-05T21:26:47.707Z,99128.53
2022-09-05T21:29:17.550Z,99127.38
2022-09-05T21:31:49.242Z,99123.56
2022-09-05T21:34:25.268Z,99126.31
2022-09-05T21:37:06.462Z,99121.94
2022-09-05T21:39:38.197Z,99101.56
2022-09-05T21:43:38.872Z,99109.78
2022-09-05T21:47:37.389Z,99113.31
2022-09-05T21:47:52.346Z,99116.50
2022-09-05T21:50:31.343Z,99113.44
2022-09-05T21:54:28.025Z,99115.53
2022-09-05T21:59:16.153Z,99115.09
2022-09-05T21:59:21.007Z,99122.69
2022-09-05T22:01:48.884Z,99106.47
2022-09-05T22:04:17.446Z,99115.06
2022-09-05T22:06:48.360Z,99102.91
2022-09-05T22:09:18.404Z,99108.13
2022-09-05T22:11:51.116Z,99101.25
2022-09-05T22:14:19.218Z,99101.06
2022-09-05T22:16:47.604Z,99103.75
2022-09-05T22:19:17.774Z,99101.56
2022-09-05T22:21:45.522Z,99098.47
2022-09-05T22:24:13.619Z,99091.53
2022-09-05T22:27:01.521Z,99102.50
2022-09-05T22:29:34.507Z,99102.31
2022-09-05T22:32:02.222Z,99088.03
2022-09-05T22:34:29.898Z,99087.22
2022-09-05T22:36:57.812Z,99090.81
2022-09-05T22:39:35.501Z,99082.31
2022-09-05T22:42:10.540Z,99089.31
2022-09-05T22:44:39.499Z,99075.47
2022-09-05T22:47:07.302Z,99073.88
2022-09-05T22:49:36.315Z,99067.22
2022-09-05T22:52:05.368Z,99066.97
2022-09-05T22:54:33.061Z,99074.41
2022-09-05T22:57:00.724Z,99085.00
2022-09-05T22:59:29.913Z,99092.50
2022-09-05T23:01:57.620Z,99093.63
2022-09-05T23:04:25.800Z,99094.41
2022-09-05T23:06:53.526Z,99098.13
2022-09-05T23:09:21.283Z,99089.00
2022-09-05T23:11:48.983Z,99089.75
2022-09-05T23:14:16.631Z,99101.34
2022-09-05T23:16:45.729Z,99101.00
2022-09-05T23:19:13.323Z,99106.34
2022-09-05T23:21:40.959Z,99100.41
2022-09-05T23:24:08.604Z,99102.13
2022-09-05T23:26:36.200Z,99098.72
2022-09-05T23:29:03.797Z,99090.81
2022-09-05T23:31:31.502Z,99096.75
2022-09-05T23:34:00.505Z,99099.19
2022-09-05T23:36:28.227Z,99100.03
2022-09-05T23:38:56.124Z,99095.84
2022-09-05T23:41:23.763Z,99094.00
2022-09-05T23:43:51.490Z,99093.75
2022-09-05T23:46:19.139Z,99086.25
2022-09-05T23:48:46.870Z,99091.59
2022-09-05T23:51:15.861Z,99081.41
2022-09-05T23:53:43.896Z,99090.28
2022-09-05T23:56:12.274Z,99076.91
2022-09-05T23:58:40.085Z,99071.28
